Terminal Aerodrome Forecast
Issued by NWS Houston/Galveston, TX

Home | Current Version | Previous Version | Text Only | Print | Product List | Glossary On
Versions: 1 2 3 4 5 6 7 8 9 10 11 12 13 14 15 16 17 18
000
FTUS44 KHGX 202339
TAFCLL
TAF
KCLL 202339Z 2100/2124 15009KT P6SM BKN250
     FM210200 12006KT P6SM BKN250
     FM210800 09009KT P6SM BKN025
     FM211000 10007KT P6SM OVC015
     FM211300 10010KT 5SM -DZ BR SCT008 OVC015
     FM211700 14007KT P6SM VCSH BKN025 BKN180
     FM212000 13009KT P6SM VCTS BKN025CB BKN040=

USA.gov is the U.S. government's official web portal to all federal, state and local government web resources and services.